Orient Glider Airport

Jump to: basic info | weather | comments

Related pages: nearby airports | nearby navaids | notams | map

Basic information (top)

Codes: FAOI
Location: lon -26.039400, lat 27.595600, elev 5,102 ft / 1,555 m msl
Status: small_airport

Weather (top)

Current conditions for Lanseria Airport 19nm (35km) ENE (rec'd 2015/03/29 23:00Z):

FALA 292300Z AUTO 00000KT //// // 14/13 Q1022

Airport forecast for Lanseria Airport 19nm (35km) ENE (rec'd 2015/03/29 12:00Z):

TAF FALA 291325Z 2912/3012 30007KT 9999 SCT045 
     FM291700 VRB04KT CAVOK 
     FM300200 08005KT 9999 SCT015 ? PROB30 
      TEMPO 3002/3006 5000 BR BKN012 
     FM300800 34007KT 9999 SCT035 TX26/2912ZTN15/3004Z

Latest comments (top)

Runway Orientation and Airfield Frequency: Runway 36/18 (Main) Runway 11/29 Airfi ... [read]

More... (top)

See also NOTAMs and nearby airports and navaids, or visit the Orient Glider Airport page at the main OurAirports website..